Sch-135 Galibier — PBIB — position and weather

sailwx.info

Track history (hours):
 
Tides and Currents Weather Stations Pressure Air Temp Water Temp Dewpoint Dewpoint Depression Visibility Wind Speed Wind Dir Waves Ship Positions

Sch-135 Galibier

Last reported at 2016-Sep-24 22:33 UTC. Time now 2016-Sep-25 00:16 UTC.
Position N 52°06' E 004°16'.

Length 35 m; draft 4.2 m.

Type: Fishing. MMSI: 244630637.

Date/timePositionNaut miles runAvg speedWind from/ knotsBaromVisibWave heightAir tempDewpointWater temp
2016-Sep-24 22:33N 52°06' E 004°16'0 0.0
2016-Sep-24 21:33N 52°06' E 004°16'0 0.0
2016-Sep-24 19:33N 52°06' E 004°16'0 0.0
2016-Sep-24 18:33N 52°06' E 004°16'0 0.0
2016-Sep-24 17:33N 52°06' E 004°16'0 0.0
2016-Sep-24 16:33N 52°06' E 004°16'0 0.0
2016-Sep-24 14:33N 52°06' E 004°16'0 0.0
2016-Sep-24 12:33N 52°06' E 004°16'0 0.0
2016-Sep-24 10:33N 52°06' E 004°16'0 0.0
2016-Sep-24 09:33N 52°06' E 004°16'0 0.0
2016-Sep-24 03:33N 52°06' E 004°16'0 0.0
2016-Sep-24 02:33N 52°06' E 004°16'0 0.0
2016-Sep-24 01:33N 52°06' E 004°16'0 0.0
2016-Sep-24 00:33N 52°06' E 004°16'0 0.0
2016-Sep-23 19:33N 52°06' E 004°16'0 0.0
2016-Sep-23 17:33N 52°06' E 004°16'0 0.0
2016-Sep-23 16:33N 52°06' E 004°16'0 0.0
2016-Sep-23 15:33N 52°06' E 004°16'0 0.0
2016-Sep-23 13:33N 52°06' E 004°16'0 0.0
2016-Sep-23 09:33N 52°06' E 004°16'0 0.0
2016-Sep-23 06:33N 52°06' E 004°16'0 0.1
2016-Sep-23 04:33N 52°06' E 004°16'0 0.0
2016-Sep-23 03:33N 52°06' E 004°16'3 3.1
2016-Sep-23 02:33N 52°08' E 004°13'1010.4
2016-Sep-23 01:33N 52°18' E 004°05'  
2016-Sep-19 12:09N 51°36' E 002°25'6 9.8
2016-Sep-19 11:33N 51°33' E 002°33'12 6.1
2016-Sep-19 09:34N 51°29' E 002°52'2 0.9
2016-Sep-19 07:34N 51°30' E 002°55'2 2.2
2016-Sep-19 06:33N 51°30' E 002°58'5 1.8
2016-Sep-19 03:33N 51°29' E 002°50'1 0.8
2016-Sep-19 02:33N 51°29' E 002°51'5 2.5
2016-Sep-19 00:33N 51°26' E 002°57'24 4.8
2016-Sep-18 19:33N 51°27' E 003°35'0 0.0
2016-Sep-18 15:33N 51°27' E 003°35'0 0.0
2016-Sep-18 14:33N 51°27' E 003°35'0 0.0
2016-Sep-18 10:33N 51°27' E 003°35'0 0.0
2016-Sep-18 09:33N 51°27' E 003°35'0 0.0
2016-Sep-18 02:33N 51°27' E 003°35'0 0.0
2016-Sep-18 01:33N 51°27' E 003°35'0 0.0
2016-Sep-18 00:33N 51°27' E 003°35'0 0.0
2016-Sep-17 22:33N 51°27' E 003°35'0 0.0
2016-Sep-17 21:33N 51°27' E 003°35'0 0.0
2016-Sep-17 20:33N 51°27' E 003°35'0 0.0
2016-Sep-17 19:16N 51°27' E 003°35'0 0.0
2016-Sep-17 13:33N 51°27' E 003°35'0 0.0
2016-Sep-17 12:33N 51°27' E 003°35'0 0.0
2016-Sep-17 10:33N 51°27' E 003°35'0 0.0
2016-Sep-17 09:33N 51°27' E 003°35'0 0.0
2016-Sep-17 08:33N 51°27' E 003°35'0 0.0
2016-Sep-17 07:34N 51°27' E 003°35'0 0.0
2016-Sep-17 05:33N 51°27' E 003°35'0 0.0
2016-Sep-17 04:33N 51°27' E 003°35'0 0.0
2016-Sep-17 00:33N 51°27' E 003°35'0 0.0
2016-Sep-16 17:34N 51°27' E 003°35'0 0.0
2016-Sep-16 15:33N 51°27' E 003°35'0 0.0
2016-Sep-16 12:34N 51°27' E 003°35'0 0.0
2016-Sep-16 09:34N 51°27' E 003°35'0 0.0
2016-Sep-16 07:33N 51°27' E 003°35'0 0.0
2016-Sep-16 03:33N 51°27' E 003°35'0 0.0
2016-Sep-16 02:33N 51°27' E 003°35'0 0.0
2016-Sep-16 00:33N 51°27' E 003°36'13 6.4
2016-Sep-15 22:34N 51°25' E 003°15'1111.2
2016-Sep-15 21:34N 51°25' E 002°58'10 9.5
2016-Sep-15 20:34N 51°25' E 002°42'18 8.8
2016-Sep-15 18:34N 51°25' E 002°14'13 2.1
2016-Sep-15 12:34N 51°24' E 001°54'2 1.8
2016-Sep-15 11:33N 51°22' E 001°52'3 0.5
2016-Sep-15 04:33N 51°25' E 001°51'2 2.0
2016-Sep-15 03:34N 51°24' E 001°50'8 4.0
2016-Sep-15 01:34N 51°31' E 001°56'  
Track history (hours):
 
Tides and Currents Weather Stations Pressure Air Temp Water Temp Dewpoint Dewpoint Depression Visibility Wind Speed Wind Dir Waves Ship Positions

Sch-135 Galibier

Last reported at 2016-Sep-24 22:33 UTC. Time now 2016-Sep-25 00:16 UTC.
Position N 52°06' E 004°16'.

Length 35 m; draft 4.2 m.

Type: Fishing. MMSI: 244630637.

Date/timePositionNaut miles runAvg speedWind from/ knotsBaromVisibWave heightAir tempDewpointWater temp
2016-Sep-24 22:33N 52°06' E 004°16'0 0.0
2016-Sep-24 21:33N 52°06' E 004°16'0 0.0
2016-Sep-24 19:33N 52°06' E 004°16'0 0.0
2016-Sep-24 18:33N 52°06' E 004°16'0 0.0
2016-Sep-24 17:33N 52°06' E 004°16'0 0.0
2016-Sep-24 16:33N 52°06' E 004°16'0 0.0
2016-Sep-24 14:33N 52°06' E 004°16'0 0.0
2016-Sep-24 12:33N 52°06' E 004°16'0 0.0
2016-Sep-24 10:33N 52°06' E 004°16'0 0.0
2016-Sep-24 09:33N 52°06' E 004°16'0 0.0
2016-Sep-24 03:33N 52°06' E 004°16'0 0.0
2016-Sep-24 02:33N 52°06' E 004°16'0 0.0
2016-Sep-24 01:33N 52°06' E 004°16'0 0.0
2016-Sep-24 00:33N 52°06' E 004°16'0 0.0
2016-Sep-23 19:33N 52°06' E 004°16'0 0.0
2016-Sep-23 17:33N 52°06' E 004°16'0 0.0
2016-Sep-23 16:33N 52°06' E 004°16'0 0.0
2016-Sep-23 15:33N 52°06' E 004°16'0 0.0
2016-Sep-23 13:33N 52°06' E 004°16'0 0.0
2016-Sep-23 09:33N 52°06' E 004°16'0 0.0
2016-Sep-23 06:33N 52°06' E 004°16'0 0.1
2016-Sep-23 04:33N 52°06' E 004°16'0 0.0
2016-Sep-23 03:33N 52°06' E 004°16'3 3.1
2016-Sep-23 02:33N 52°08' E 004°13'1010.4
2016-Sep-23 01:33N 52°18' E 004°05'  
2016-Sep-19 12:09N 51°36' E 002°25'6 9.8
2016-Sep-19 11:33N 51°33' E 002°33'12 6.1
2016-Sep-19 09:34N 51°29' E 002°52'2 0.9
2016-Sep-19 07:34N 51°30' E 002°55'2 2.2
2016-Sep-19 06:33N 51°30' E 002°58'5 1.8
2016-Sep-19 03:33N 51°29' E 002°50'1 0.8
2016-Sep-19 02:33N 51°29' E 002°51'5 2.5
2016-Sep-19 00:33N 51°26' E 002°57'24 4.8
2016-Sep-18 19:33N 51°27' E 003°35'0 0.0
2016-Sep-18 15:33N 51°27' E 003°35'0 0.0
2016-Sep-18 14:33N 51°27' E 003°35'0 0.0
2016-Sep-18 10:33N 51°27' E 003°35'0 0.0
2016-Sep-18 09:33N 51°27' E 003°35'0 0.0
2016-Sep-18 02:33N 51°27' E 003°35'0 0.0
2016-Sep-18 01:33N 51°27' E 003°35'0 0.0
2016-Sep-18 00:33N 51°27' E 003°35'0 0.0
2016-Sep-17 22:33N 51°27' E 003°35'0 0.0
2016-Sep-17 21:33N 51°27' E 003°35'0 0.0
2016-Sep-17 20:33N 51°27' E 003°35'0 0.0
2016-Sep-17 19:16N 51°27' E 003°35'0 0.0
2016-Sep-17 13:33N 51°27' E 003°35'0 0.0
2016-Sep-17 12:33N 51°27' E 003°35'0 0.0
2016-Sep-17 10:33N 51°27' E 003°35'0 0.0
2016-Sep-17 09:33N 51°27' E 003°35'0 0.0
2016-Sep-17 08:33N 51°27' E 003°35'0 0.0
2016-Sep-17 07:34N 51°27' E 003°35'0 0.0
2016-Sep-17 05:33N 51°27' E 003°35'0 0.0
2016-Sep-17 04:33N 51°27' E 003°35'0 0.0
2016-Sep-17 00:33N 51°27' E 003°35'0 0.0
2016-Sep-16 17:34N 51°27' E 003°35'0 0.0
2016-Sep-16 15:33N 51°27' E 003°35'0 0.0
2016-Sep-16 12:34N 51°27' E 003°35'0 0.0
2016-Sep-16 09:34N 51°27' E 003°35'0 0.0
2016-Sep-16 07:33N 51°27' E 003°35'0 0.0
2016-Sep-16 03:33N 51°27' E 003°35'0 0.0
2016-Sep-16 02:33N 51°27' E 003°35'0 0.0
2016-Sep-16 00:33N 51°27' E 003°36'13 6.4
2016-Sep-15 22:34N 51°25' E 003°15'1111.2
2016-Sep-15 21:34N 51°25' E 002°58'10 9.5
2016-Sep-15 20:34N 51°25' E 002°42'18 8.8
2016-Sep-15 18:34N 51°25' E 002°14'13 2.1
2016-Sep-15 12:34N 51°24' E 001°54'2 1.8
2016-Sep-15 11:33N 51°22' E 001°52'3 0.5
2016-Sep-15 04:33N 51°25' E 001°51'2 2.0
2016-Sep-15 03:34N 51°24' E 001°50'8 4.0
2016-Sep-15 01:34N 51°31' E 001°56'  

Dump ship's entire track history